Search for airport 
image banner adimage banner adimage banner ad
image banner ad

6CA1 - Triple R Ranch

Located in Macdoel, United States

ICAO - 6CA1, IATA -

Data provided by Airmate  

General information

Coordinates: N41°44'34" W121°52'42"
Elevation is 4380 feet MSL.
Magnetic variation is 18° East
View others Airports in California

Operational data

Special qualification required
Current time UTC:
Current local time:
Weather at : KLMT - Crater Lake-Klamath Rgnl ( 47 km )
METAR: KLMT 150853Z AUTO 00000KT 10SM SCT065 06/04 A3009 RMK AO2 SLP163 T00560044 53001
TAF: KLMT 150549Z 1506/1606 27012KT P6SM SCT070 FM160000 33013G20KT P6SM FEW250
View NOTAMs / SUP AIP / TFR affecting this airport [VIEW]
Communications frequencies: [VIEW]

Runways:

RWY identifierQFULength (ft)Width (ft)SurfaceLDA (ft)
15230040GRASS
33230040GRASS

Airport contact information

Address: Macdoel United States

Satellite view of 6CA1